Terminal Aerodrome Forecast
Issued by NWS Bismarck, ND

Home | Current Version | Previous Version | Graphics & Text | Print | Product List | Glossary On
Versions: 1 2 3 4 5 6 7 8 9 10 11 12 13 14 15 16 17 18 19 20
174
FTUS43 KBIS 252244 AAC
TAFBIS
TAF AMD
KBIS 252244Z 2523/2618 30012G20KT P6SM VCSH BKN060
     FM260100 01007KT P6SM SCT070
     FM260600 VRB03KT P6SM SKC=

USA.gov is the U.S. government's official web portal to all federal, state and local government web resources and services.